sensor_id;sensor_type;location;lat;lon;timestamp;pressure;altitude;pressure_sealevel;temperature;humidity
27040;BME280;14589;51.578;7.306;2023-04-21T05:01:53;100916.16;;;8.07;93.65
27040;BME280;14589;51.578;7.306;2023-04-21T05:04:24;100906.31;;;8.06;92.91
27040;BME280;14589;51.578;7.306;2023-04-21T05:06:54;100909.88;;;8.07;93.07
27040;BME280;14589;51.578;7.306;2023-04-21T05:09:25;100909.03;;;8.06;93.74
27040;BME280;14589;51.578;7.306;2023-04-21T05:11:55;100912.59;;;8.07;93.21
27040;BME280;14589;51.578;7.306;2023-04-21T05:14:26;100921.28;;;8.10;93.95
27040;BME280;14589;51.578;7.306;2023-04-21T05:16:56;100918.47;;;8.12;93.48
27040;BME280;14589;51.578;7.306;2023-04-21T05:19:27;100921.91;;;8.14;93.90
27040;BME280;14589;51.578;7.306;2023-04-21T05:21:58;100921.03;;;8.13;93.61
27040;BME280;14589;51.578;7.306;2023-04-21T05:24:30;100909.09;;;8.16;93.78
27040;BME280;14589;51.578;7.306;2023-04-21T05:27:03;100910.94;;;8.16;93.34
27040;BME280;14589;51.578;7.306;2023-04-21T05:29:34;100913.28;;;8.20;93.86
27040;BME280;14589;51.578;7.306;2023-04-21T05:32:04;100915.47;;;8.26;93.02
27040;BME280;14589;51.578;7.306;2023-04-21T05:34:35;100918.88;;;8.28;93.83
27040;BME280;14589;51.578;7.306;2023-04-21T05:37:06;100910.91;;;8.27;93.67
27040;BME280;14589;51.578;7.306;2023-04-21T05:39:36;100930.06;;;8.35;93.64
27040;BME280;14589;51.578;7.306;2023-04-21T05:42:09;100926.94;;;8.39;93.19
27040;BME280;14589;51.578;7.306;2023-04-21T05:44:39;100932.00;;;8.44;93.24
27040;BME280;14589;51.578;7.306;2023-04-21T05:47:10;100932.69;;;8.46;93.43
27040;BME280;14589;51.578;7.306;2023-04-21T05:49:40;100939.56;;;8.50;93.59
27040;BME280;14589;51.578;7.306;2023-04-21T05:52:11;100936.13;;;8.48;93.72
27040;BME280;14589;51.578;7.306;2023-04-21T05:54:41;100937.84;;;8.49;93.09
27040;BME280;14589;51.578;7.306;2023-04-21T05:57:12;100942.16;;;8.51;93.41
27040;BME280;14589;51.578;7.306;2023-04-21T05:59:43;100945.44;;;8.55;93.64
27040;BME280;14589;51.578;7.306;2023-04-21T06:02:13;100940.16;;;8.53;93.70
27040;BME280;14589;51.578;7.306;2023-04-21T06:04:44;100937.34;;;8.55;92.89
27040;BME280;14589;51.578;7.306;2023-04-21T06:07:14;100923.38;;;8.50;93.12
27040;BME280;14589;51.578;7.306;2023-04-21T06:09:50;100935.94;;;8.61;93.34
27040;BME280;14589;51.578;7.306;2023-04-21T06:12:20;100920.84;;;8.58;93.39
27040;BME280;14589;51.578;7.306;2023-04-21T06:14:51;100923.88;;;8.65;93.78
27040;BME280;14589;51.578;7.306;2023-04-21T06:17:21;100916.50;;;8.67;93.92
27040;BME280;14589;51.578;7.306;2023-04-21T06:19:52;100925.81;;;8.74;93.45
27040;BME280;14589;51.578;7.306;2023-04-21T06:22:22;100925.81;;;8.74;93.64
27040;BME280;14589;51.578;7.306;2023-04-21T06:24:53;100925.28;;;8.80;93.37
27040;BME280;14589;51.578;7.306;2023-04-21T06:27:23;100924.88;;;8.84;92.97
27040;BME280;14589;51.578;7.306;2023-04-21T06:29:54;100925.94;;;8.93;93.23
27040;BME280;14589;51.578;7.306;2023-04-21T06:32:25;100916.66;;;8.96;93.37
27040;BME280;14589;51.578;7.306;2023-04-21T06:34:56;100925.50;;;8.98;92.86
27040;BME280;14589;51.578;7.306;2023-04-21T06:37:26;100916.88;;;9.04;93.46
27040;BME280;14589;51.578;7.306;2023-04-21T06:39:56;100915.75;;;9.06;93.11
27040;BME280;14589;51.578;7.306;2023-04-21T06:42:27;100923.16;;;9.14;93.46
27040;BME280;14589;51.578;7.306;2023-04-21T06:45:00;100925.22;;;9.21;92.68
27040;BME280;14589;51.578;7.306;2023-04-21T06:47:32;100915.00;;;9.25;93.42
27040;BME280;14589;51.578;7.306;2023-04-21T06:50:03;100917.00;;;9.32;92.64
27040;BME280;14589;51.578;7.306;2023-04-21T06:52:35;100908.75;;;9.34;92.66
27040;BME280;14589;51.578;7.306;2023-04-21T06:55:09;100898.53;;;9.38;92.76
27040;BME280;14589;51.578;7.306;2023-04-21T06:57:42;100884.38;;;9.34;92.56
27040;BME280;14589;51.578;7.306;2023-04-21T07:00:14;100911.09;;;9.48;92.88
27040;BME280;14589;51.578;7.306;2023-04-21T07:02:45;100900.81;;;9.52;92.76
27040;BME280;14589;51.578;7.306;2023-04-21T07:05:15;100910.97;;;9.59;92.96
27040;BME280;14589;51.578;7.306;2023-04-21T07:07:46;100915.84;;;9.65;92.72
27040;BME280;14589;51.578;7.306;2023-04-21T07:10:16;100927.41;;;9.77;92.60
27040;BME280;14589;51.578;7.306;2023-04-21T07:12:49;100929.84;;;9.80;92.67
27040;BME280;14589;51.578;7.306;2023-04-21T07:15:20;100922.88;;;9.87;92.63
27040;BME280;14589;51.578;7.306;2023-04-21T07:17:50;100911.31;;;9.85;92.22
27040;BME280;14589;51.578;7.306;2023-04-21T07:20:21;100896.22;;;9.92;91.91
27040;BME280;14589;51.578;7.306;2023-04-21T07:22:51;100906.06;;;9.93;91.41
27040;BME280;14589;51.578;7.306;2023-04-21T07:25:21;100898.22;;;10.00;92.02
27040;BME280;14589;51.578;7.306;2023-04-21T07:27:52;100892.22;;;9.96;91.71
27040;BME280;14589;51.578;7.306;2023-04-21T07:30:22;100903.66;;;10.09;91.17
27040;BME280;14589;51.578;7.306;2023-04-21T07:32:53;100907.53;;;10.17;91.17
27040;BME280;14589;51.578;7.306;2023-04-21T07:35:24;100907.66;;;10.15;91.37
27040;BME280;14589;51.578;7.306;2023-04-21T07:37:55;100903.41;;;10.22;91.09
27040;BME280;14589;51.578;7.306;2023-04-21T07:40:27;100903.84;;;10.27;91.28
27040;BME280;14589;51.578;7.306;2023-04-21T07:42:58;100904.13;;;10.34;90.84
27040;BME280;14589;51.578;7.306;2023-04-21T07:45:28;100904.53;;;10.39;91.18
27040;BME280;14589;51.578;7.306;2023-04-21T07:47:58;100902.69;;;10.39;91.08
27040;BME280;14589;51.578;7.306;2023-04-21T07:50:29;100909.81;;;10.40;90.55
27040;BME280;14589;51.578;7.306;2023-04-21T07:52:59;100899.25;;;10.37;90.28
27040;BME280;14589;51.578;7.306;2023-04-21T07:55:31;100903.25;;;10.33;89.82
27040;BME280;14589;51.578;7.306;2023-04-21T07:58:03;100907.66;;;10.44;90.55
27040;BME280;14589;51.578;7.306;2023-04-21T08:00:33;100904.28;;;10.42;90.19
27040;BME280;14589;51.578;7.306;2023-04-21T08:03:04;100901.13;;;10.37;89.19
27040;BME280;14589;51.578;7.306;2023-04-21T08:05:34;100906.69;;;10.45;89.45
27040;BME280;14589;51.578;7.306;2023-04-21T08:08:05;100898.69;;;10.43;89.53
27040;BME280;14589;51.578;7.306;2023-04-21T08:10:36;100898.25;;;10.58;89.80
27040;BME280;14589;51.578;7.306;2023-04-21T08:13:07;100894.94;;;10.64;90.54
27040;BME280;14589;51.578;7.306;2023-04-21T08:15:37;100898.34;;;10.75;90.07
27040;BME280;14589;51.578;7.306;2023-04-21T08:18:08;100899.53;;;10.73;88.94
27040;BME280;14589;51.578;7.306;2023-04-21T08:20:38;100894.91;;;10.83;89.80
27040;BME280;14589;51.578;7.306;2023-04-21T08:23:08;100889.31;;;10.94;90.26
27040;BME280;14589;51.578;7.306;2023-04-21T08:25:39;100898.31;;;11.04;89.46
27040;BME280;14589;51.578;7.306;2023-04-21T08:28:09;100888.72;;;11.10;89.26
27040;BME280;14589;51.578;7.306;2023-04-21T08:30:40;100891.03;;;11.05;87.89
27040;BME280;14589;51.578;7.306;2023-04-21T08:33:11;100895.50;;;11.23;88.34
27040;BME280;14589;51.578;7.306;2023-04-21T08:35:42;100894.88;;;11.29;88.61
27040;BME280;14589;51.578;7.306;2023-04-21T08:38:13;100908.59;;;11.38;87.89
27040;BME280;14589;51.578;7.306;2023-04-21T08:40:43;100915.00;;;11.46;88.25
27040;BME280;14589;51.578;7.306;2023-04-21T08:43:15;100913.03;;;11.39;86.48
27040;BME280;14589;51.578;7.306;2023-04-21T08:45:46;100902.00;;;11.40;86.43
27040;BME280;14589;51.578;7.306;2023-04-21T08:48:18;100907.31;;;11.42;87.28
27040;BME280;14589;51.578;7.306;2023-04-21T08:50:51;100907.00;;;11.45;87.12
27040;BME280;14589;51.578;7.306;2023-04-21T08:53:23;100912.34;;;11.54;86.58
27040;BME280;14589;51.578;7.306;2023-04-21T08:55:54;100914.25;;;11.54;87.06
27040;BME280;14589;51.578;7.306;2023-04-21T08:58:25;100915.03;;;11.64;87.19
27040;BME280;14589;51.578;7.306;2023-04-21T09:00:55;100899.88;;;11.61;86.33
27040;BME280;14589;51.578;7.306;2023-04-21T09:03:27;100923.16;;;11.73;86.45
27040;BME280;14589;51.578;7.306;2023-04-21T09:06:02;100914.00;;;11.74;85.95
27040;BME280;14589;51.578;7.306;2023-04-21T09:08:38;100909.69;;;11.82;85.74
27040;BME280;14589;51.578;7.306;2023-04-21T09:11:14;100908.69;;;11.83;84.43
27040;BME280;14589;51.578;7.306;2023-04-21T09:13:44;100914.25;;;11.81;84.79
27040;BME280;14589;51.578;7.306;2023-04-21T09:16:18;100906.34;;;11.88;85.53
27040;BME280;14589;51.578;7.306;2023-04-21T09:18:50;100909.78;;;11.90;84.66
27040;BME280;14589;51.578;7.306;2023-04-21T09:21:26;100906.38;;;12.05;82.90
27040;BME280;14589;51.578;7.306;2023-04-21T09:24:03;100909.78;;;12.07;84.28
27040;BME280;14589;51.578;7.306;2023-04-21T09:26:34;100900.94;;;12.05;82.36
27040;BME280;14589;51.578;7.306;2023-04-21T09:29:05;100909.09;;;12.05;81.92
27040;BME280;14589;51.578;7.306;2023-04-21T09:31:36;100915.72;;;12.21;82.53
27040;BME280;14589;51.578;7.306;2023-04-21T09:34:20;100911.53;;;12.26;81.53
27040;BME280;14589;51.578;7.306;2023-04-21T09:37:02;100901.16;;;12.30;82.05
27040;BME280;14589;51.578;7.306;2023-04-21T09:39:33;100915.31;;;12.51;83.04
27040;BME280;14589;51.578;7.306;2023-04-21T09:42:04;100907.69;;;12.54;81.38
27040;BME280;14589;51.578;7.306;2023-04-21T09:44:34;100901.97;;;12.66;83.28
27040;BME280;14589;51.578;7.306;2023-04-21T09:47:09;100901.41;;;12.80;81.42
27040;BME280;14589;51.578;7.306;2023-04-21T09:49:40;100901.16;;;12.91;81.90
27040;BME280;14589;51.578;7.306;2023-04-21T09:52:14;100897.28;;;12.93;80.96
27040;BME280;14589;51.578;7.306;2023-04-21T09:54:49;100908.75;;;13.05;80.85
27040;BME280;14589;51.578;7.306;2023-04-21T09:57:24;100895.94;;;12.97;80.21
27040;BME280;14589;51.578;7.306;2023-04-21T10:00:04;100899.22;;;13.09;80.65
27040;BME280;14589;51.578;7.306;2023-04-21T10:02:41;100898.06;;;13.12;79.31
27040;BME280;14589;51.578;7.306;2023-04-21T10:05:13;100886.81;;;13.07;78.00
27040;BME280;14589;51.578;7.306;2023-04-21T10:07:44;100878.03;;;13.13;79.13
27040;BME280;14589;51.578;7.306;2023-04-21T10:10:21;100882.97;;;13.17;77.94
27040;BME280;14589;51.578;7.306;2023-04-21T10:12:52;100891.00;;;13.19;78.23
27040;BME280;14589;51.578;7.306;2023-04-21T10:15:33;100874.41;;;13.38;78.98
27040;BME280;14589;51.578;7.306;2023-04-21T10:18:16;100874.41;;;13.38;75.20
27040;BME280;14589;51.578;7.306;2023-04-21T10:23:33;100866.81;;;13.58;77.56
27040;BME280;14589;51.578;7.306;2023-04-21T10:26:07;100865.84;;;13.67;77.52
27040;BME280;14589;51.578;7.306;2023-04-21T10:28:39;100853.09;;;13.84;76.54
27040;BME280;14589;51.578;7.306;2023-04-21T10:31:18;100867.59;;;13.92;79.11
27040;BME280;14589;51.578;7.306;2023-04-21T10:41:57;100860.47;;;14.96;75.09
27040;BME280;14589;51.578;7.306;2023-04-21T10:47:39;100858.63;;;15.44;70.22
27040;BME280;14589;51.578;7.306;2023-04-21T10:50:14;100859.53;;;15.36;68.46
27040;BME280;14589;51.578;7.306;2023-04-21T10:52:56;100857.28;;;15.40;67.48
27040;BME280;14589;51.578;7.306;2023-04-21T10:55:28;100851.81;;;15.40;67.04
27040;BME280;14589;51.578;7.306;2023-04-21T10:58:01;100849.53;;;15.60;67.60
27040;BME280;14589;51.578;7.306;2023-04-21T11:00:32;100854.22;;;15.35;66.89
27040;BME280;14589;51.578;7.306;2023-04-21T11:03:04;100847.28;;;15.24;68.10
27040;BME280;14589;51.578;7.306;2023-04-21T11:05:37;100846.44;;;15.16;67.52
27040;BME280;14589;51.578;7.306;2023-04-21T11:08:13;100848.88;;;14.94;67.68
27040;BME280;14589;51.578;7.306;2023-04-21T11:13:14;100852.50;;;14.87;68.62
27040;BME280;14589;51.578;7.306;2023-04-21T11:15:59;100843.09;;;14.81;68.42
27040;BME280;14589;51.578;7.306;2023-04-21T11:18:40;100841.56;;;14.71;67.53
27040;BME280;14589;51.578;7.306;2023-04-21T11:21:15;100839.88;;;14.70;67.85
27040;BME280;14589;51.578;7.306;2023-04-21T11:23:55;100845.19;;;14.55;66.45
27040;BME280;14589;51.578;7.306;2023-04-21T11:26:33;100835.63;;;14.59;67.60
27040;BME280;14589;51.578;7.306;2023-04-21T11:29:05;100824.88;;;14.57;66.35
27040;BME280;14589;51.578;7.306;2023-04-21T11:31:38;100814.13;;;14.64;67.24
27040;BME280;14589;51.578;7.306;2023-04-21T11:34:08;100810.03;;;14.68;67.33
27040;BME280;14589;51.578;7.306;2023-04-21T11:36:43;100821.13;;;14.75;66.65
27040;BME280;14589;51.578;7.306;2023-04-21T11:39:15;100812.25;;;14.73;66.96
27040;BME280;14589;51.578;7.306;2023-04-21T11:41:50;100800.78;;;14.77;66.83
27040;BME280;14589;51.578;7.306;2023-04-21T11:44:35;100784.94;;;14.73;66.64
27040;BME280;14589;51.578;7.306;2023-04-21T11:47:20;100789.53;;;14.80;66.28
27040;BME280;14589;51.578;7.306;2023-04-21T11:49:55;100786.28;;;14.85;67.16
27040;BME280;14589;51.578;7.306;2023-04-21T11:52:29;100787.44;;;14.90;66.57
27040;BME280;14589;51.578;7.306;2023-04-21T11:57:35;100775.44;;;15.08;66.29
27040;BME280;14589;51.578;7.306;2023-04-21T12:00:08;100780.19;;;15.14;65.82
27040;BME280;14589;51.578;7.306;2023-04-21T12:02:44;100778.44;;;15.21;66.33
27040;BME280;14589;51.578;7.306;2023-04-21T12:05:22;100769.78;;;15.17;65.79
27040;BME280;14589;51.578;7.306;2023-04-21T12:07:54;100759.69;;;15.18;65.57
27040;BME280;14589;51.578;7.306;2023-04-21T12:10:25;100751.56;;;15.32;65.54
27040;BME280;14589;51.578;7.306;2023-04-21T12:12:58;100760.72;;;15.48;65.53
27040;BME280;14589;51.578;7.306;2023-04-21T12:15:29;100751.00;;;15.76;64.04
27040;BME280;14589;51.578;7.306;2023-04-21T12:17:59;100756.28;;;16.00;63.69
27040;BME280;14589;51.578;7.306;2023-04-21T12:20:29;100760.56;;;16.17;63.20
27040;BME280;14589;51.578;7.306;2023-04-21T12:23:00;100750.34;;;16.34;62.88
27040;BME280;14589;51.578;7.306;2023-04-21T12:25:30;100738.47;;;16.56;62.44
27040;BME280;14589;51.578;7.306;2023-04-21T12:28:01;100751.75;;;16.82;61.23
27040;BME280;14589;51.578;7.306;2023-04-21T12:30:31;100743.91;;;16.94;60.64
27040;BME280;14589;51.578;7.306;2023-04-21T12:33:01;100746.16;;;17.05;59.42
27040;BME280;14589;51.578;7.306;2023-04-21T12:35:32;100737.31;;;17.03;60.61
27040;BME280;14589;51.578;7.306;2023-04-21T12:38:02;100740.97;;;16.95;58.68
27040;BME280;14589;51.578;7.306;2023-04-21T12:40:33;100730.59;;;16.91;59.48
27040;BME280;14589;51.578;7.306;2023-04-21T12:43:03;100723.78;;;17.02;59.57
27040;BME280;14589;51.578;7.306;2023-04-21T12:45:35;100715.81;;;17.21;59.58
27040;BME280;14589;51.578;7.306;2023-04-21T12:48:05;100719.44;;;17.43;58.95
27040;BME280;14589;51.578;7.306;2023-04-21T12:50:36;100716.50;;;17.45;57.47
27040;BME280;14589;51.578;7.306;2023-04-21T12:53:06;100710.84;;;17.46;55.26
27040;BME280;14589;51.578;7.306;2023-04-21T12:55:36;100703.88;;;17.86;56.46
27040;BME280;14589;51.578;7.306;2023-04-21T12:58:07;100697.38;;;18.15;55.91
27040;BME280;14589;51.578;7.306;2023-04-21T13:00:37;100701.72;;;18.31;54.43
27040;BME280;14589;51.578;7.306;2023-04-21T13:03:08;100691.16;;;18.55;54.60
27040;BME280;14589;51.578;7.306;2023-04-21T13:05:38;100684.41;;;18.92;53.67
27040;BME280;14589;51.578;7.306;2023-04-21T13:08:08;100683.09;;;19.36;52.85
27040;BME280;14589;51.578;7.306;2023-04-21T13:10:39;100684.91;;;19.96;51.59
27040;BME280;14589;51.578;7.306;2023-04-21T13:13:09;100666.88;;;20.27;48.86
27040;BME280;14589;51.578;7.306;2023-04-21T13:15:39;100669.50;;;20.92;48.62
27040;BME280;14589;51.578;7.306;2023-04-21T13:18:10;100665.69;;;21.45;46.96
27040;BME280;14589;51.578;7.306;2023-04-21T13:20:40;100661.88;;;22.08;44.26
27040;BME280;14589;51.578;7.306;2023-04-21T13:23:10;100655.69;;;22.31;42.63
27040;BME280;14589;51.578;7.306;2023-04-21T13:25:43;100639.78;;;22.88;41.93
27040;BME280;14589;51.578;7.306;2023-04-21T13:28:17;100640.28;;;23.33;40.07
27040;BME280;14589;51.578;7.306;2023-04-21T13:30:50;100634.03;;;23.37;39.11
27040;BME280;14589;51.578;7.306;2023-04-21T13:33:20;100623.97;;;23.25;38.75
27040;BME280;14589;51.578;7.306;2023-04-21T13:35:51;100627.91;;;23.89;39.34
27040;BME280;14589;51.578;7.306;2023-04-21T13:38:21;100617.25;;;23.03;37.77
27040;BME280;14589;51.578;7.306;2023-04-21T13:40:52;100612.06;;;23.54;38.66
27040;BME280;14589;51.578;7.306;2023-04-21T13:43:22;100614.72;;;23.49;37.39
27040;BME280;14589;51.578;7.306;2023-04-21T13:45:53;100609.47;;;23.41;37.42
27040;BME280;14589;51.578;7.306;2023-04-21T13:48:24;100593.88;;;23.17;37.81
27040;BME280;14589;51.578;7.306;2023-04-21T13:50:55;100595.63;;;22.63;39.09
27040;BME280;14589;51.578;7.306;2023-04-21T13:53:26;100601.13;;;21.77;40.97
27040;BME280;14589;51.578;7.306;2023-04-21T13:55:57;100585.22;;;21.16;42.78
27040;BME280;14589;51.578;7.306;2023-04-21T13:58:28;100583.28;;;20.79;43.33
27040;BME280;14589;51.578;7.306;2023-04-21T14:01:00;100573.38;;;20.65;44.54
27040;BME280;14589;51.578;7.306;2023-04-21T14:03:30;100565.66;;;20.09;45.21
27040;BME280;14589;51.578;7.306;2023-04-21T14:06:00;100571.84;;;19.71;46.56
27040;BME280;14589;51.578;7.306;2023-04-21T14:08:31;100561.88;;;19.77;46.81
27040;BME280;14589;51.578;7.306;2023-04-21T14:11:02;100564.84;;;19.75;46.80
27040;BME280;14589;51.578;7.306;2023-04-21T14:13:32;100558.53;;;19.68;46.61
27040;BME280;14589;51.578;7.306;2023-04-21T14:16:03;100561.03;;;19.63;46.63
27040;BME280;14589;51.578;7.306;2023-04-21T14:18:33;100555.72;;;19.82;46.74
27040;BME280;14589;51.578;7.306;2023-04-21T14:21:04;100550.63;;;20.18;46.18
27040;BME280;14589;51.578;7.306;2023-04-21T14:23:34;100547.66;;;20.77;45.03
27040;BME280;14589;51.578;7.306;2023-04-21T14:26:05;100548.31;;;21.11;43.07
27040;BME280;14589;51.578;7.306;2023-04-21T14:28:35;100549.06;;;21.56;43.93
27040;BME280;14589;51.578;7.306;2023-04-21T14:31:06;100540.75;;;21.31;42.19
27040;BME280;14589;51.578;7.306;2023-04-21T14:33:36;100528.50;;;21.27;42.41
27040;BME280;14589;51.578;7.306;2023-04-21T14:36:07;100532.16;;;21.21;42.54
27040;BME280;14589;51.578;7.306;2023-04-21T14:38:37;100521.13;;;21.14;42.49
27040;BME280;14589;51.578;7.306;2023-04-21T14:41:08;100523.34;;;20.99;42.75
27040;BME280;14589;51.578;7.306;2023-04-21T14:43:38;100523.25;;;21.19;42.71
27040;BME280;14589;51.578;7.306;2023-04-21T14:46:09;100518.69;;;21.31;43.48
27040;BME280;14589;51.578;7.306;2023-04-21T14:48:39;100519.44;;;21.13;43.12
27040;BME280;14589;51.578;7.306;2023-04-21T14:51:11;100522.63;;;20.79;42.54
27040;BME280;14589;51.578;7.306;2023-04-21T14:53:41;100513.47;;;20.40;43.40
27040;BME280;14589;51.578;7.306;2023-04-21T14:56:11;100505.88;;;20.42;43.62
27040;BME280;14589;51.578;7.306;2023-04-21T14:58:42;100501.66;;;20.33;44.58
27040;BME280;14589;51.578;7.306;2023-04-21T15:01:12;100494.56;;;20.50;44.32
27040;BME280;14589;51.578;7.306;2023-04-21T15:03:43;100498.59;;;20.54;44.31
27040;BME280;14589;51.578;7.306;2023-04-21T15:06:13;100496.97;;;20.40;45.05
27040;BME280;14589;51.578;7.306;2023-04-21T15:08:45;100490.50;;;20.02;44.60
27040;BME280;14589;51.578;7.306;2023-04-21T15:11:16;100499.97;;;20.12;44.65
27040;BME280;14589;51.578;7.306;2023-04-21T15:13:47;100494.97;;;19.83;45.79
27040;BME280;14589;51.578;7.306;2023-04-21T15:16:18;100485.50;;;19.66;46.34
27040;BME280;14589;51.578;7.306;2023-04-21T15:18:48;100492.69;;;19.60;47.45
27040;BME280;14589;51.578;7.306;2023-04-21T15:21:19;100482.72;;;19.39;48.38
27040;BME280;14589;51.578;7.306;2023-04-21T15:23:49;100481.69;;;19.47;48.12
27040;BME280;14589;51.578;7.306;2023-04-21T15:26:20;100473.22;;;19.16;49.15
27040;BME280;14589;51.578;7.306;2023-04-21T15:28:51;100471.50;;;19.15;50.05
27040;BME280;14589;51.578;7.306;2023-04-21T15:31:22;100480.38;;;18.84;50.16
27040;BME280;14589;51.578;7.306;2023-04-21T15:33:53;100477.63;;;18.84;50.86
27040;BME280;14589;51.578;7.306;2023-04-21T15:36:23;100476.97;;;18.75;50.99
27040;BME280;14589;51.578;7.306;2023-04-21T15:38:54;100463.19;;;18.55;51.99
27040;BME280;14589;51.578;7.306;2023-04-21T15:41:24;100469.53;;;18.56;51.66
27040;BME280;14589;51.578;7.306;2023-04-21T15:43:56;100473.34;;;18.62;51.59
27040;BME280;14589;51.578;7.306;2023-04-21T15:46:27;100469.06;;;18.52;51.81
27040;BME280;14589;51.578;7.306;2023-04-21T15:48:57;100456.44;;;18.65;52.71
27040;BME280;14589;51.578;7.306;2023-04-21T15:51:30;100463.44;;;18.67;52.34
27040;BME280;14589;51.578;7.306;2023-04-21T15:54:03;100470.41;;;18.63;52.15
27040;BME280;14589;51.578;7.306;2023-04-21T15:56:33;100469.56;;;18.69;52.22
27040;BME280;14589;51.578;7.306;2023-04-21T15:59:03;100451.19;;;18.76;52.50
27040;BME280;14589;51.578;7.306;2023-04-21T16:01:34;100449.50;;;18.75;53.40
27040;BME280;14589;51.578;7.306;2023-04-21T16:04:04;100447.81;;;18.68;52.91
27040;BME280;14589;51.578;7.306;2023-04-21T16:06:35;100444.88;;;18.82;53.47
27040;BME280;14589;51.578;7.306;2023-04-21T16:09:05;100431.53;;;18.73;52.32
27040;BME280;14589;51.578;7.306;2023-04-21T16:11:36;100444.00;;;18.69;52.06
27040;BME280;14589;51.578;7.306;2023-04-21T16:14:06;100424.69;;;18.49;52.24
27040;BME280;14589;51.578;7.306;2023-04-21T16:16:36;100421.09;;;18.48;52.13
27040;BME280;14589;51.578;7.306;2023-04-21T16:19:07;100430.16;;;18.36;52.02
27040;BME280;14589;51.578;7.306;2023-04-21T16:21:37;100415.50;;;18.15;52.25
27040;BME280;14589;51.578;7.306;2023-04-21T16:24:09;100421.81;;;18.09;52.33
27040;BME280;14589;51.578;7.306;2023-04-21T16:26:39;100416.09;;;18.04;52.97
27040;BME280;14589;51.578;7.306;2023-04-21T16:29:10;100415.69;;;18.07;52.70
27040;BME280;14589;51.578;7.306;2023-04-21T16:31:40;100402.53;;;17.96;53.24
27040;BME280;14589;51.578;7.306;2023-04-21T16:34:11;100398.75;;;17.97;53.26
27040;BME280;14589;51.578;7.306;2023-04-21T16:36:42;100396.84;;;17.91;53.51
27040;BME280;14589;51.578;7.306;2023-04-21T16:39:13;100395.16;;;17.97;53.69
27040;BME280;14589;51.578;7.306;2023-04-21T16:41:43;100391.81;;;18.01;53.58
27040;BME280;14589;51.578;7.306;2023-04-21T16:44:14;100397.91;;;17.97;53.56
27040;BME280;14589;51.578;7.306;2023-04-21T16:46:44;100384.22;;;18.03;54.50
27040;BME280;14589;51.578;7.306;2023-04-21T16:49:15;100379.78;;;18.02;57.05
27040;BME280;14589;51.578;7.306;2023-04-21T16:51:45;100381.69;;;18.08;61.46
27040;BME280;14589;51.578;7.306;2023-04-21T16:54:16;100376.41;;;18.00;62.17
27040;BME280;14589;51.578;7.306;2023-04-21T16:56:46;100377.47;;;17.99;60.84
27040;BME280;14589;51.578;7.306;2023-04-21T16:59:16;100372.13;;;17.91;62.01
27040;BME280;14589;51.578;7.306;2023-04-21T17:01:48;100380.19;;;17.93;66.41
27040;BME280;14589;51.578;7.306;2023-04-21T17:04:19;100383.97;;;17.92;66.76
27040;BME280;14589;51.578;7.306;2023-04-21T17:06:49;100364.75;;;17.92;63.82
27040;BME280;14589;51.578;7.306;2023-04-21T17:09:20;100372.56;;;17.88;63.33
27040;BME280;14589;51.578;7.306;2023-04-21T17:11:50;100361.97;;;17.85;62.98
27040;BME280;14589;51.578;7.306;2023-04-21T17:14:21;100362.16;;;17.70;62.08
27040;BME280;14589;51.578;7.306;2023-04-21T17:16:52;100363.09;;;17.56;60.80
27040;BME280;14589;51.578;7.306;2023-04-21T17:19:22;100364.72;;;17.44;62.13
27040;BME280;14589;51.578;7.306;2023-04-21T17:21:53;100362.97;;;17.36;62.99
27040;BME280;14589;51.578;7.306;2023-04-21T17:24:24;100369.69;;;17.27;62.71
27040;BME280;14589;51.578;7.306;2023-04-21T17:26:55;100355.66;;;17.16;62.66
27040;BME280;14589;51.578;7.306;2023-04-21T17:29:25;100361.56;;;17.13;63.75
27040;BME280;14589;51.578;7.306;2023-04-21T17:31:56;100364.88;;;17.02;65.62
27040;BME280;14589;51.578;7.306;2023-04-21T17:34:27;100364.81;;;16.95;66.46
27040;BME280;14589;51.578;7.306;2023-04-21T17:36:57;100362.22;;;16.87;67.38
27040;BME280;14589;51.578;7.306;2023-04-21T17:39:27;100370.13;;;16.75;69.09
27040;BME280;14589;51.578;7.306;2023-04-21T17:41:58;100358.06;;;16.70;70.25
27040;BME280;14589;51.578;7.306;2023-04-21T17:44:28;100367.47;;;16.61;70.43
27040;BME280;14589;51.578;7.306;2023-04-21T17:46:58;100359.50;;;16.44;71.70
27040;BME280;14589;51.578;7.306;2023-04-21T17:49:29;100361.97;;;16.39;71.76
27040;BME280;14589;51.578;7.306;2023-04-21T17:52:00;100360.81;;;16.27;72.33
27040;BME280;14589;51.578;7.306;2023-04-21T17:54:31;100357.50;;;16.17;72.78
27040;BME280;14589;51.578;7.306;2023-04-21T17:57:01;100357.84;;;16.07;72.04
27040;BME280;14589;51.578;7.306;2023-04-21T17:59:32;100361.34;;;16.01;73.03
27040;BME280;14589;51.578;7.306;2023-04-21T18:02:02;100355.34;;;15.91;72.88
27040;BME280;14589;51.578;7.306;2023-04-21T18:04:34;100348.69;;;15.79;73.38
27040;BME280;14589;51.578;7.306;2023-04-21T18:07:05;100342.47;;;15.70;73.87
27040;BME280;14589;51.578;7.306;2023-04-21T18:09:36;100356.06;;;15.64;74.04
27040;BME280;14589;51.578;7.306;2023-04-21T18:12:06;100346.81;;;15.50;74.63
27040;BME280;14589;51.578;7.306;2023-04-21T18:14:37;100345.22;;;15.41;74.68
27040;BME280;14589;51.578;7.306;2023-04-21T18:17:07;100341.91;;;15.31;75.64
27040;BME280;14589;51.578;7.306;2023-04-21T18:19:38;100341.84;;;15.24;76.07
27040;BME280;14589;51.578;7.306;2023-04-21T18:22:08;100346.38;;;15.17;76.52
27040;BME280;14589;51.578;7.306;2023-04-21T18:24:39;100347.47;;;15.08;76.69
27040;BME280;14589;51.578;7.306;2023-04-21T18:27:09;100340.78;;;14.96;76.62
27040;BME280;14589;51.578;7.306;2023-04-21T18:29:40;100350.91;;;14.87;77.79
27040;BME280;14589;51.578;7.306;2023-04-21T18:32:10;100350.25;;;14.71;77.77
27040;BME280;14589;51.578;7.306;2023-04-21T18:34:41;100349.78;;;14.67;78.20